Terminal Aerodrome Forecast
Issued by NWS

Home | Current Version | Previous Version | Text Only | Print | Product List | Glossary On
Versions: 1 2 3 4 5 6 7 8 9 10 11 12 13 14 15 16 17 18 19 20 21 22
000
FTUS41 KOKX 300830 AAA
TAFSWF
TAF AMD
KSWF 300830Z 3009/3112 23005KT P6SM OVC100
      TEMPO 3010/3013 4SM -SN BKN020
     FM301300 25011G18KT P6SM SCT020 OVC040
     FM301500 29014G22KT P6SM BKN040
     FM310000 28010KT P6SM FEW040
     FM310200 27007KT P6SM SKC
      AMD NOT SKED=

USA.gov is the U.S. government's official web portal to all federal, state and local government web resources and services.